createdAt,value
2022-09-03T00:02:13.082Z,1.90
2022-09-03T00:05:01.263Z,1.63
2022-09-03T00:07:34.114Z,1.58
2022-09-03T00:10:05.718Z,2.20
2022-09-03T00:12:37.152Z,1.55
2022-09-03T00:15:08.889Z,1.73
2022-09-03T00:17:53.784Z,1.55
2022-09-03T00:20:39.023Z,1.80
2022-09-03T00:23:21.939Z,1.98
2022-09-03T00:26:13.846Z,1.92
2022-09-03T00:29:04.081Z,1.85
2022-09-03T00:31:39.385Z,1.70
2022-09-03T00:34:17.061Z,1.83
2022-09-03T00:36:46.017Z,1.73
2022-09-03T00:39:16.456Z,2.00
2022-09-03T00:42:00.781Z,1.80
2022-09-03T00:44:48.579Z,1.45
2022-09-03T00:47:38.408Z,1.42
2022-09-03T00:50:18.694Z,1.63
2022-09-03T00:53:11.921Z,1.63
2022-09-03T00:55:47.500Z,1.85
2022-09-03T00:58:37.977Z,1.92
2022-09-03T01:01:15.318Z,1.80
2022-09-03T01:04:00.523Z,1.70
2022-09-03T01:07:14.624Z,1.60
2022-09-03T01:10:48.316Z,1.20
2022-09-03T01:13:20.996Z,1.60
2022-09-03T01:16:11.145Z,1.60
2022-09-03T01:18:51.610Z,1.73
2022-09-03T01:21:40.742Z,1.85
2022-09-03T01:24:18.587Z,1.30
2022-09-03T01:27:11.207Z,1.23
2022-09-03T01:29:50.947Z,1.95
2022-09-03T01:32:54.605Z,1.60
2022-09-03T01:35:36.914Z,1.88
2022-09-03T01:38:15.778Z,2.08
2022-09-03T01:41:24.021Z,2.13
2022-09-03T01:44:19.028Z,2.58
2022-09-03T01:46:47.079Z,2.33
2022-09-03T01:49:41.717Z,2.10
2022-09-03T01:52:42.289Z,2.22
2022-09-03T01:55:33.791Z,2.53
2022-09-03T01:58:20.362Z,3.15
2022-09-03T02:00:52.128Z,3.05
2022-09-03T02:03:20.103Z,3.53
2022-09-03T02:05:49.544Z,5.15
2022-09-03T02:08:18.674Z,4.10
2022-09-03T02:10:51.417Z,3.53
2022-09-03T02:13:26.009Z,3.10
2022-09-03T02:15:55.103Z,2.70
2022-09-03T02:18:34.059Z,3.17
2022-09-03T02:21:02.008Z,3.08
2022-09-03T02:23:30.963Z,2.75
2022-09-03T02:26:02.659Z,2.85
2022-09-03T02:28:32.098Z,2.15
2022-09-03T02:31:00.390Z,2.78
2022-09-03T02:33:28.324Z,2.38
2022-09-03T02:35:56.537Z,3.20
2022-09-03T02:38:28.568Z,2.50
2022-09-03T02:40:56.489Z,2.63
2022-09-03T02:43:28.136Z,2.28
2022-09-03T02:46:00.138Z,1.60
2022-09-03T02:48:28.730Z,2.05
2022-09-03T02:50:56.538Z,2.10
2022-09-03T02:53:24.619Z,1.95
2022-09-03T02:55:52.495Z,2.47
2022-09-03T02:58:20.997Z,1.80
2022-09-03T03:00:49.553Z,2.22
2022-09-03T03:03:17.379Z,1.98
2022-09-03T03:05:50.061Z,1.80
2022-09-03T03:08:21.754Z,1.60
2022-09-03T03:10:50.286Z,1.80
2022-09-03T03:13:18.898Z,1.90
2022-09-03T03:15:49.077Z,1.90
2022-09-03T03:18:17.705Z,1.70
2022-09-03T03:20:45.700Z,2.30
2022-09-03T03:23:13.538Z,2.13
2022-09-03T03:25:41.548Z,2.17
2022-09-03T03:28:09.480Z,1.75
2022-09-03T03:30:40.363Z,1.20
2022-09-03T03:33:10.033Z,1.52
2022-09-03T03:35:38.292Z,1.42
2022-09-03T03:38:06.289Z,1.33
2022-09-03T03:40:36.996Z,2.25
2022-09-03T03:43:04.845Z,1.25
2022-09-03T03:45:32.737Z,1.42
2022-09-03T03:48:00.640Z,1.27
2022-09-03T03:50:54.216Z,1.17
2022-09-03T03:53:22.333Z,1.95
2022-09-03T03:55:57.273Z,1.27
2022-09-03T03:58:25.485Z,1.20
2022-09-03T04:00:53.812Z,1.60
2022-09-03T04:03:21.768Z,1.15
2022-09-03T04:05:57.297Z,1.52
2022-09-03T04:08:26.030Z,2.90
2022-09-03T04:10:54.024Z,1.52
2022-09-03T04:13:22.149Z,2.17
2022-09-03T04:15:50.512Z,1.80
2022-09-03T04:18:18.754Z,1.95
2022-09-03T04:20:47.339Z,1.90
2022-09-03T04:23:15.162Z,1.58
2022-09-03T04:25:43.818Z,2.05
2022-09-03T04:28:14.201Z,1.95
2022-09-03T04:30:42.320Z,2.15
2022-09-03T04:33:15.917Z,1.90
2022-09-03T04:35:44.653Z,2.10
2022-09-03T04:38:12.637Z,1.92
2022-09-03T04:40:40.732Z,1.63
2022-09-03T04:43:08.525Z,2.25
2022-09-03T04:45:36.409Z,2.47
2022-09-03T04:48:04.747Z,2.35
2022-09-03T04:50:35.791Z,2.53
2022-09-03T04:53:07.943Z,2.10
2022-09-03T04:55:37.005Z,2.47
2022-09-03T04:58:08.073Z,2.42
2022-09-03T05:00:38.555Z,2.35
2022-09-03T05:03:06.470Z,2.58
2022-09-03T05:05:34.931Z,2.35
2022-09-03T05:08:04.783Z,2.03
2022-09-03T05:10:33.623Z,2.47
2022-09-03T05:13:02.436Z,2.28
2022-09-03T05:15:33.973Z,1.65
2022-09-03T05:18:03.367Z,1.38
2022-09-03T05:20:32.942Z,1.40
2022-09-03T05:23:04.042Z,1.50
2022-09-03T05:25:35.128Z,1.40
2022-09-03T05:28:03.215Z,1.50
2022-09-03T05:30:31.434Z,1.23
2022-09-03T05:32:59.523Z,1.65
2022-09-03T05:35:30.312Z,1.33
2022-09-03T05:37:59.697Z,1.25
2022-09-03T05:40:27.824Z,1.58
2022-09-03T05:42:58.633Z,1.58
2022-09-03T05:45:26.512Z,2.15
2022-09-03T05:47:54.459Z,1.95
2022-09-03T05:50:22.428Z,2.38
2022-09-03T05:52:50.348Z,1.90
2022-09-03T05:55:18.296Z,1.73
2022-09-03T05:57:52.609Z,1.88
2022-09-03T06:00:20.979Z,1.50
2022-09-03T06:02:53.355Z,2.05
2022-09-03T06:05:21.964Z,1.70
2022-09-03T06:07:49.872Z,1.60
2022-09-03T06:10:20.295Z,2.38
2022-09-03T06:12:52.483Z,2.30
2022-09-03T06:15:22.791Z,1.92
2022-09-03T06:17:50.957Z,1.90
2022-09-03T06:20:20.404Z,2.10
2022-09-03T06:22:53.743Z,1.83
2022-09-03T06:25:22.127Z,2.00
2022-09-03T06:27:49.916Z,1.27
2022-09-03T06:30:18.120Z,1.30
2022-09-03T06:32:47.313Z,1.27
2022-09-03T06:35:15.825Z,1.20
2022-09-03T06:37:44.019Z,1.30
2022-09-03T06:40:20.713Z,1.33
2022-09-03T06:42:58.180Z,1.10
2022-09-03T06:45:26.220Z,1.33
2022-09-03T06:47:54.706Z,1.58
2022-09-03T06:50:23.532Z,1.38
2022-09-03T06:52:55.239Z,1.60
2022-09-03T06:55:23.189Z,1.80
2022-09-03T06:57:54.306Z,1.30
2022-09-03T07:00:23.832Z,1.17
2022-09-03T07:02:59.195Z,2.42
2022-09-03T07:05:29.997Z,1.10
2022-09-03T07:08:00.898Z,1.00
2022-09-03T07:10:29.004Z,1.13
2022-09-03T07:12:58.019Z,1.70
2022-09-03T07:15:26.470Z,1.20
2022-09-03T07:17:54.902Z,1.02
2022-09-03T07:20:25.246Z,1.10
2022-09-03T07:22:57.000Z,1.25
2022-09-03T07:25:26.431Z,0.90
2022-09-03T07:27:54.644Z,1.17
2022-09-03T07:30:23.284Z,1.15
2022-09-03T07:32:52.260Z,0.77
2022-09-03T07:35:20.553Z,1.08
2022-09-03T07:37:49.494Z,1.02
2022-09-03T07:40:20.033Z,1.20
2022-09-03T07:42:52.063Z,1.30
2022-09-03T07:45:24.181Z,0.70
2022-09-03T07:47:52.143Z,0.60
2022-09-03T07:50:20.221Z,0.60
2022-09-03T07:52:48.767Z,0.60
2022-09-03T07:55:16.765Z,0.90
2022-09-03T07:57:44.620Z,1.00
2022-09-03T08:00:13.766Z,7.80
2022-09-03T08:02:45.931Z,2.15
2022-09-03T08:05:14.708Z,2.15
2022-09-03T08:07:42.986Z,1.13
2022-09-03T08:10:10.905Z,0.90
2022-09-03T08:12:39.022Z,0.80
2022-09-03T08:15:07.477Z,1.05
2022-09-03T08:17:35.809Z,0.77
2022-09-03T08:20:04.981Z,0.88
2022-09-03T08:22:34.211Z,0.73
2022-09-03T08:25:02.076Z,0.77
2022-09-03T08:27:30.404Z,0.95
2022-09-03T08:30:01.638Z,0.80
2022-09-03T08:32:30.969Z,0.90
2022-09-03T08:35:00.441Z,0.65
2022-09-03T08:37:29.180Z,0.60
2022-09-03T08:39:57.138Z,0.77
2022-09-03T08:42:57.497Z,0.98
2022-09-03T08:45:26.535Z,1.10
2022-09-03T08:48:10.709Z,0.63
2022-09-03T08:50:42.368Z,0.70
2022-09-03T08:53:20.268Z,0.90
2022-09-03T08:55:52.708Z,0.80
2022-09-03T08:58:22.235Z,0.50
2022-09-03T09:01:02.979Z,1.50
2022-09-03T09:03:35.607Z,0.80
2022-09-03T09:06:26.990Z,0.82
2022-09-03T09:09:08.150Z,0.73
2022-09-03T09:11:57.830Z,0.60
2022-09-03T09:14:31.872Z,0.65
2022-09-03T09:17:35.312Z,0.60
2022-09-03T09:20:21.928Z,0.57
2022-09-03T09:22:59.832Z,0.55
2022-09-03T09:25:27.961Z,0.50
2022-09-03T09:28:11.023Z,0.68
2022-09-03T09:30:39.782Z,0.60
2022-09-03T09:33:07.712Z,0.50
2022-09-03T09:35:36.120Z,0.50
2022-09-03T09:38:04.204Z,0.80
2022-09-03T09:40:40.454Z,0.60
2022-09-03T09:43:21.417Z,0.50
2022-09-03T09:45:51.777Z,0.90
2022-09-03T09:48:31.651Z,0.50
2022-09-03T09:51:13.132Z,0.85
2022-09-03T09:53:42.351Z,1.00
2022-09-03T09:56:10.250Z,0.95
2022-09-03T09:58:38.354Z,0.82
2022-09-03T10:01:15.701Z,0.70
2022-09-03T10:03:57.546Z,0.60
2022-09-03T10:06:45.654Z,0.47
2022-09-03T10:09:17.846Z,0.88
2022-09-03T10:11:52.245Z,0.70
2022-09-03T10:14:20.682Z,0.50
2022-09-03T10:16:51.064Z,1.50
2022-09-03T10:19:21.580Z,0.40
2022-09-03T10:21:49.476Z,0.50
2022-09-03T10:24:32.392Z,0.50
2022-09-03T10:27:01.086Z,0.60
2022-09-03T10:29:30.283Z,0.50
2022-09-03T10:32:09.799Z,0.70
2022-09-03T10:34:58.964Z,0.70
2022-09-03T10:38:08.456Z,0.57
2022-09-03T10:41:06.292Z,0.63
2022-09-03T10:43:59.962Z,0.40
2022-09-03T10:46:29.292Z,0.50
2022-09-03T10:49:03.010Z,0.68
2022-09-03T10:51:37.587Z,0.50
2022-09-03T10:54:41.345Z,0.68
2022-09-03T10:57:19.837Z,0.68
2022-09-03T11:00:07.224Z,0.88
2022-09-03T11:03:03.761Z,0.70
2022-09-03T11:05:48.233Z,0.63
2022-09-03T11:08:24.749Z,0.70
2022-09-03T11:10:57.466Z,0.70
2022-09-03T11:13:55.083Z,0.80
2022-09-03T11:16:33.632Z,0.70
2022-09-03T11:19:07.684Z,0.93
2022-09-03T11:21:36.051Z,0.57
2022-09-03T11:24:24.758Z,0.80
2022-09-03T11:27:13.781Z,0.60
2022-09-03T11:30:03.958Z,0.80
2022-09-03T11:32:55.417Z,0.73
2022-09-03T11:35:41.230Z,0.70
2022-09-03T11:38:21.682Z,0.90
2022-09-03T11:41:02.284Z,0.40
2022-09-03T11:43:33.861Z,0.50
2022-09-03T11:46:06.724Z,0.60
2022-09-03T11:48:41.528Z,0.60
2022-09-03T11:51:30.199Z,0.50
2022-09-03T11:54:06.940Z,0.75
2022-09-03T11:56:36.723Z,0.80
2022-09-03T11:59:15.123Z,0.77
2022-09-03T12:01:53.478Z,0.80
2022-09-03T12:04:25.600Z,0.50
2022-09-03T12:07:13.758Z,0.60
2022-09-03T12:10:03.035Z,0.73
2022-09-03T12:12:59.893Z,1.10
2022-09-03T12:15:50.406Z,0.60
2022-09-03T12:18:32.270Z,0.70
2022-09-03T12:21:03.092Z,0.68
2022-09-03T12:23:33.832Z,0.93
2022-09-03T12:26:07.429Z,0.98
2022-09-03T12:28:41.461Z,1.25
2022-09-03T12:31:25.758Z,1.77
2022-09-03T12:34:01.334Z,1.60
2022-09-03T12:36:42.632Z,1.67
2022-09-03T12:39:12.961Z,1.17
2022-09-03T12:42:08.752Z,0.95
2022-09-03T12:44:36.894Z,1.10
2022-09-03T12:50:12.856Z,1.20
2022-09-03T12:52:51.499Z,0.65
2022-09-03T12:55:38.426Z,1.02
2022-09-03T12:58:33.748Z,1.17
2022-09-03T13:01:09.388Z,0.70
2022-09-03T13:03:48.274Z,0.75
2022-09-03T13:06:20.447Z,0.65
2022-09-03T13:08:51.998Z,0.80
2022-09-03T13:11:23.171Z,0.98
2022-09-03T13:13:58.364Z,1.35
2022-09-03T13:16:38.700Z,0.80
2022-09-03T13:19:22.033Z,0.80
2022-09-03T13:22:19.396Z,0.70
2022-09-03T13:25:14.738Z,0.98
2022-09-03T13:28:10.865Z,1.35
2022-09-03T13:30:53.216Z,0.70
2022-09-03T13:33:23.853Z,0.70
2022-09-03T13:36:26.205Z,0.80
2022-09-03T13:39:06.857Z,0.70
2022-09-03T13:41:42.805Z,0.80
2022-09-03T13:44:14.652Z,1.08
2022-09-03T13:47:26.871Z,0.80
2022-09-03T13:50:19.842Z,0.80
2022-09-03T13:52:58.733Z,0.90
2022-09-03T13:55:35.364Z,0.95
2022-09-03T13:58:22.601Z,0.98
2022-09-03T14:01:21.235Z,0.75
2022-09-03T14:03:50.778Z,0.90
2022-09-03T14:06:41.334Z,0.93
2022-09-03T14:09:34.344Z,0.90
2022-09-03T14:12:34.411Z,1.10
2022-09-03T14:15:15.778Z,1.10
2022-09-03T14:18:11.308Z,0.85
2022-09-03T14:21:05.173Z,0.70
2022-09-03T14:24:01.992Z,1.45
2022-09-03T14:26:38.964Z,0.82
2022-09-03T14:29:11.194Z,0.80
2022-09-03T14:31:52.587Z,1.20
2022-09-03T14:34:39.276Z,1.05
2022-09-03T14:37:30.606Z,0.98
2022-09-03T14:40:16.842Z,0.93
2022-09-03T14:42:52.707Z,1.02
2022-09-03T14:45:45.577Z,1.10
2022-09-03T14:48:30.851Z,1.10
2022-09-03T14:51:07.695Z,1.13
2022-09-03T14:53:48.157Z,1.10
2022-09-03T14:56:22.166Z,1.20
2022-09-03T14:59:01.279Z,1.00
2022-09-03T15:01:39.481Z,1.23
2022-09-03T15:04:32.476Z,0.75
2022-09-03T15:07:15.690Z,0.85
2022-09-03T15:10:02.621Z,0.80
2022-09-03T15:15:33.875Z,0.80
2022-09-03T15:18:26.813Z,0.70
2022-09-03T15:20:58.464Z,0.70
2022-09-03T15:24:26.733Z,0.60
2022-09-03T15:27:17.405Z,0.95
2022-09-03T15:30:06.368Z,0.88
2022-09-03T15:32:54.165Z,0.95
2022-09-03T15:35:45.668Z,1.10
2022-09-03T15:38:49.339Z,0.90
2022-09-03T15:41:26.269Z,1.00
2022-09-03T15:43:59.176Z,1.00
2022-09-03T15:46:54.502Z,0.90
2022-09-03T15:49:40.958Z,1.48
2022-09-03T15:52:27.816Z,0.70
2022-09-03T15:55:26.315Z,1.30
2022-09-03T15:58:10.712Z,1.20
2022-09-03T16:01:01.286Z,1.15
2022-09-03T16:03:44.455Z,1.08
2022-09-03T16:06:45.049Z,1.02
2022-09-03T16:09:30.377Z,1.23
2022-09-03T16:12:24.271Z,0.90
2022-09-03T16:15:15.703Z,1.27
2022-09-03T16:18:04.812Z,1.30
2022-09-03T16:20:39.019Z,0.93
2022-09-03T16:23:42.743Z,1.08
2022-09-03T16:26:15.243Z,1.02
2022-09-03T16:28:48.045Z,1.33
2022-09-03T16:31:50.279Z,1.17
2022-09-03T16:34:24.964Z,1.10
2022-09-03T16:37:09.056Z,1.25
2022-09-03T16:39:53.366Z,1.17
2022-09-03T16:42:42.842Z,0.88
2022-09-03T16:45:35.034Z,0.82
2022-09-03T16:48:31.626Z,1.40
2022-09-03T16:51:06.938Z,1.52
2022-09-03T16:54:05.005Z,1.63
2022-09-03T16:57:01.329Z,1.83
2022-09-03T16:59:47.833Z,1.50
2022-09-03T17:02:41.581Z,1.90
2022-09-03T17:05:31.311Z,1.75
2022-09-03T17:08:07.341Z,1.75
2022-09-03T17:10:58.123Z,1.83
2022-09-03T17:13:44.484Z,1.58
2022-09-03T17:16:31.143Z,1.40
2022-09-03T17:19:09.482Z,1.75
2022-09-03T17:21:57.329Z,1.20
2022-09-03T17:24:52.671Z,1.83
2022-09-03T17:27:32.811Z,1.00
2022-09-03T17:30:10.079Z,1.30
2022-09-03T17:33:25.793Z,1.17
2022-09-03T17:36:14.964Z,1.20
2022-09-03T17:39:07.433Z,1.30
2022-09-03T17:41:40.965Z,1.25
2022-09-03T17:44:35.616Z,1.20
2022-09-03T17:47:19.488Z,1.30
2022-09-03T17:49:52.886Z,1.60
2022-09-03T17:52:29.810Z,1.40
2022-09-03T17:55:22.271Z,1.20
2022-09-03T17:58:14.420Z,1.38
2022-09-03T18:01:23.774Z,1.30
2022-09-03T18:03:55.187Z,1.40
2022-09-03T18:06:43.218Z,1.23
2022-09-03T18:09:42.135Z,1.02
2022-09-03T18:12:41.563Z,1.05
2022-09-03T18:15:21.722Z,1.15
2022-09-03T18:18:06.708Z,1.30
2022-09-03T18:21:23.214Z,1.15
2022-09-03T18:24:26.126Z,1.48
2022-09-03T18:27:28.154Z,1.10
2022-09-03T18:30:25.621Z,1.40
2022-09-03T18:33:12.359Z,1.00
2022-09-03T18:36:06.980Z,1.42
2022-09-03T18:38:55.509Z,1.10
2022-09-03T18:42:23.649Z,1.10
2022-09-03T18:45:22.149Z,1.25
2022-09-03T18:48:30.964Z,0.95
2022-09-03T18:51:48.237Z,1.27
2022-09-03T18:55:07.782Z,1.17
2022-09-03T18:58:20.505Z,1.10
2022-09-03T19:01:26.260Z,0.88
2022-09-03T19:04:38.286Z,1.13
2022-09-03T19:07:59.894Z,1.10
2022-09-03T19:11:11.152Z,0.65
2022-09-03T19:13:58.994Z,1.10
2022-09-03T19:16:59.078Z,1.38
2022-09-03T19:20:08.591Z,1.17
2022-09-03T19:22:58.802Z,1.00
2022-09-03T19:25:47.159Z,1.10
2022-09-03T19:28:48.923Z,1.20
2022-09-03T19:31:52.998Z,1.23
2022-09-03T19:34:45.489Z,1.13
2022-09-03T19:37:54.099Z,1.58
2022-09-03T19:41:00.990Z,1.00
2022-09-03T19:44:09.393Z,1.80
2022-09-03T19:47:11.050Z,1.17
2022-09-03T19:50:20.566Z,1.30
2022-09-03T19:53:14.488Z,1.33
2022-09-03T19:56:15.448Z,1.27
2022-09-03T19:59:17.922Z,1.40
2022-09-03T20:02:06.050Z,1.02
2022-09-03T20:05:09.875Z,1.30
2022-09-03T20:07:57.493Z,1.20
2022-09-03T20:10:25.896Z,1.48
2022-09-03T20:12:54.809Z,1.00
2022-09-03T20:15:24.011Z,1.65
2022-09-03T20:18:12.144Z,1.58
2022-09-03T20:20:43.218Z,1.30
2022-09-03T20:23:17.152Z,1.40
2022-09-03T20:26:26.588Z,1.05
2022-09-03T20:29:21.212Z,1.00
2022-09-03T20:32:06.483Z,1.02
2022-09-03T20:34:45.066Z,0.93
2022-09-03T20:37:24.504Z,1.13
2022-09-03T20:40:13.188Z,1.20
2022-09-03T20:42:46.855Z,1.20
2022-09-03T20:45:21.431Z,1.15
2022-09-03T20:48:17.222Z,1.38
2022-09-03T20:50:56.613Z,1.50
2022-09-03T20:53:34.639Z,1.10
2022-09-03T20:56:16.211Z,1.27
2022-09-03T20:59:23.381Z,1.20
2022-09-03T21:02:05.744Z,1.75
2022-09-03T21:04:52.153Z,1.40
2022-09-03T21:07:35.822Z,1.50
2022-09-03T21:10:37.997Z,1.20
2022-09-03T21:13:38.692Z,1.50
2022-09-03T21:16:09.807Z,1.48
2022-09-03T21:19:00.024Z,1.50
2022-09-03T21:21:39.858Z,1.40
2022-09-03T21:24:18.808Z,1.30
2022-09-03T21:26:57.250Z,1.27
2022-09-03T21:29:45.377Z,1.45
2022-09-03T21:32:30.050Z,1.40
2022-09-03T21:35:09.688Z,1.25
2022-09-03T21:37:38.548Z,1.80
2022-09-03T21:40:08.244Z,1.10
2022-09-03T21:42:43.330Z,1.48
2022-09-03T21:45:40.700Z,1.67
2022-09-03T21:48:18.549Z,1.40
2022-09-03T21:50:54.971Z,1.17
2022-09-03T21:53:44.754Z,1.48
2022-09-03T21:56:32.976Z,1.27
2022-09-03T21:59:26.148Z,1.30
2022-09-03T22:02:00.426Z,1.27
2022-09-03T22:04:28.596Z,1.38
2022-09-03T22:06:57.039Z,2.33
2022-09-03T22:09:37.133Z,1.35
2022-09-03T22:12:14.316Z,1.15
2022-09-03T22:14:48.188Z,1.25
2022-09-03T22:17:32.033Z,1.20
2022-09-03T22:19:59.927Z,1.40
2022-09-03T22:22:50.033Z,1.27
2022-09-03T22:25:22.825Z,1.63
2022-09-03T22:28:03.489Z,1.35
2022-09-03T22:30:50.412Z,1.60
2022-09-03T22:36:07.544Z,1.25
2022-09-03T22:38:41.082Z,1.55
2022-09-03T22:41:32.363Z,1.40
2022-09-03T22:44:19.241Z,1.33
2022-09-03T22:47:13.576Z,1.30
2022-09-03T22:49:57.356Z,1.45
2022-09-03T22:52:39.907Z,1.10
2022-09-03T22:55:11.809Z,1.70
2022-09-03T22:58:07.341Z,1.58
2022-09-03T23:00:59.317Z,1.42
2022-09-03T23:03:42.414Z,1.25
2022-09-03T23:06:15.764Z,1.02
2022-09-03T23:08:54.611Z,1.60
2022-09-03T23:11:35.830Z,1.52
2022-09-03T23:14:08.401Z,1.23
2022-09-03T23:16:39.378Z,1.52
2022-09-03T23:24:28.131Z,1.48
2022-09-03T23:26:56.848Z,1.90
2022-09-03T23:29:48.263Z,1.85
2022-09-03T23:32:16.201Z,1.70
2022-09-03T23:34:44.075Z,1.65
2022-09-03T23:37:34.143Z,2.03
2022-09-03T23:40:16.736Z,2.08
2022-09-03T23:43:03.429Z,2.30
2022-09-03T23:46:03.518Z,1.65
2022-09-03T23:48:46.644Z,2.05
2022-09-03T23:52:06.194Z,1.95
2022-09-03T23:54:43.526Z,1.83
2022-09-03T23:57:33.371Z,3.08
